createdAt,value
2018-03-22T00:00:08.828Z,66.50
2018-03-22T00:02:37.212Z,66.30
2018-03-22T00:05:05.674Z,66.10
2018-03-22T00:07:33.397Z,66.10
2018-03-22T00:10:01.005Z,66.10
2018-03-22T00:12:28.647Z,66.00
2018-03-22T00:14:56.259Z,65.80
2018-03-22T00:17:24.674Z,65.50
2018-03-22T00:19:52.348Z,65.50
2018-03-22T00:22:31.987Z,65.30
2018-03-22T00:24:59.648Z,65.40
2018-03-22T00:27:27.316Z,65.50
2018-03-22T00:29:55.056Z,65.60
2018-03-22T00:32:22.651Z,65.60
2018-03-22T00:34:50.316Z,65.80
2018-03-22T00:37:17.943Z,65.40
2018-03-22T00:39:46.490Z,65.50
2018-03-22T00:42:14.147Z,65.40
2018-03-22T00:44:41.804Z,65.50
2018-03-22T00:47:09.461Z,65.30
2018-03-22T00:49:37.104Z,65.20
2018-03-22T00:52:05.627Z,64.70
2018-03-22T00:54:33.230Z,65.00
2018-03-22T00:57:00.924Z,65.00
2018-03-22T00:59:29.362Z,65.20
2018-03-22T01:01:57.422Z,65.10
2018-03-22T01:04:25.055Z,65.60
2018-03-22T01:06:53.427Z,65.20
2018-03-22T01:09:21.223Z,65.10
2018-03-22T01:11:48.836Z,65.20
2018-03-22T01:14:16.489Z,65.20
2018-03-22T01:16:44.256Z,65.20
2018-03-22T01:19:12.394Z,65.30
2018-03-22T01:21:40.805Z,65.20
2018-03-22T01:24:08.414Z,65.20
2018-03-22T01:26:36.133Z,65.20
2018-03-22T01:29:03.918Z,65.10
2018-03-22T01:31:31.688Z,65.30
2018-03-22T01:33:59.333Z,65.00
2018-03-22T01:36:26.961Z,65.10
2018-03-22T01:38:54.613Z,64.80
2018-03-22T01:41:22.234Z,65.10
2018-03-22T01:43:49.874Z,64.80
2018-03-22T01:46:23.449Z,65.10
2018-03-22T01:48:51.136Z,65.10
2018-03-22T01:51:19.659Z,65.70
2018-03-22T01:53:47.291Z,66.10
2018-03-22T01:56:15.706Z,66.30
2018-03-22T01:58:43.375Z,66.30
2018-03-22T02:01:11.030Z,66.40
2018-03-22T02:03:39.412Z,66.70
2018-03-22T02:06:07.228Z,66.70
2018-03-22T02:08:34.868Z,67.00
2018-03-22T02:11:02.528Z,67.10
2018-03-22T02:13:30.217Z,67.00
2018-03-22T02:15:58.006Z,66.70
2018-03-22T02:18:25.734Z,66.60
2018-03-22T02:20:53.402Z,66.70
2018-03-22T02:23:21.206Z,66.60
2018-03-22T02:25:48.886Z,66.50
2018-03-22T02:28:17.225Z,66.40
2018-03-22T02:30:44.843Z,66.50
2018-03-22T02:33:12.478Z,66.60
2018-03-22T02:35:40.212Z,66.90
2018-03-22T02:38:07.858Z,67.20
2018-03-22T02:40:36.254Z,67.70
2018-03-22T02:43:03.913Z,67.70
2018-03-22T02:45:32.425Z,67.80
2018-03-22T02:48:00.088Z,67.70
2018-03-22T02:50:27.784Z,67.80
2018-03-22T02:52:55.456Z,67.90
2018-03-22T02:55:23.192Z,67.90
2018-03-22T02:57:50.935Z,67.80
2018-03-22T03:00:19.419Z,68.00
2018-03-22T03:02:47.936Z,68.20
2018-03-22T03:05:15.549Z,68.20
2018-03-22T03:07:43.538Z,68.30
2018-03-22T03:10:11.344Z,68.00
2018-03-22T03:12:39.009Z,67.90
2018-03-22T03:15:06.677Z,67.90
2018-03-22T03:17:34.311Z,67.70
2018-03-22T03:20:02.857Z,67.40
2018-03-22T03:22:30.469Z,67.30
2018-03-22T03:24:58.100Z,67.30
2018-03-22T03:27:25.738Z,67.20
2018-03-22T03:29:53.352Z,67.10
2018-03-22T03:32:21.758Z,67.00
2018-03-22T03:34:49.473Z,67.00
2018-03-22T03:37:17.124Z,67.10
2018-03-22T03:39:44.781Z,67.20
2018-03-22T03:42:12.784Z,67.20
2018-03-22T03:44:40.400Z,67.40
2018-03-22T03:47:08.061Z,67.30
2018-03-22T03:49:36.454Z,67.20
2018-03-22T03:52:04.064Z,67.10
2018-03-22T03:54:32.033Z,67.00
2018-03-22T03:56:59.770Z,66.60
2018-03-22T03:59:27.416Z,66.60
2018-03-22T04:01:55.827Z,66.00
2018-03-22T04:04:23.436Z,66.00
2018-03-22T04:06:52.573Z,66.50
2018-03-22T04:09:20.978Z,66.80
2018-03-22T04:11:48.645Z,66.80
2018-03-22T04:14:16.384Z,67.10
2018-03-22T04:16:44.804Z,67.50
2018-03-22T04:19:12.427Z,67.50
2018-03-22T04:21:40.912Z,68.50
2018-03-22T04:24:09.335Z,68.80
2018-03-22T04:26:37.041Z,68.80
2018-03-22T04:29:04.705Z,68.90
2018-03-22T04:31:32.325Z,69.00
2018-03-22T04:34:00.047Z,68.70
2018-03-22T04:36:27.701Z,68.50
2018-03-22T04:38:55.341Z,68.20
2018-03-22T04:41:23.011Z,68.30
2018-03-22T04:43:50.644Z,68.00
2018-03-22T04:46:19.365Z,68.10
2018-03-22T04:48:46.983Z,68.10
2018-03-22T04:51:15.408Z,69.10
2018-03-22T04:53:43.157Z,68.80
2018-03-22T04:56:11.588Z,69.70
2018-03-22T04:58:39.723Z,69.70
2018-03-22T05:01:07.376Z,69.90
2018-03-22T05:03:35.839Z,69.30
2018-03-22T05:06:03.564Z,69.30
2018-03-22T05:08:31.164Z,69.30
2018-03-22T05:10:58.796Z,69.30
2018-03-22T05:13:26.433Z,69.10
2018-03-22T05:15:54.108Z,69.10
2018-03-22T05:18:21.742Z,69.50
2018-03-22T05:20:49.562Z,68.70
2018-03-22T05:23:17.239Z,68.50
2018-03-22T05:25:44.892Z,68.50
2018-03-22T05:28:13.511Z,68.60
2018-03-22T05:30:41.121Z,68.90
2018-03-22T05:33:09.552Z,70.20
2018-03-22T05:35:37.220Z,70.20
2018-03-22T05:38:04.965Z,70.70
2018-03-22T05:40:32.692Z,70.90
2018-03-22T05:43:00.404Z,69.60
2018-03-22T05:45:28.034Z,69.00
2018-03-22T05:47:56.442Z,68.40
2018-03-22T05:50:24.102Z,68.40
2018-03-22T05:52:52.557Z,68.10
2018-03-22T05:55:24.945Z,68.10
2018-03-22T05:57:53.373Z,67.20
2018-03-22T06:00:21.031Z,67.20
2018-03-22T06:02:48.657Z,67.20
2018-03-22T06:05:17.085Z,67.30
2018-03-22T06:07:44.749Z,67.30
2018-03-22T06:10:12.469Z,66.70
2018-03-22T06:12:40.284Z,66.10
2018-03-22T06:15:07.889Z,65.50
2018-03-22T06:17:35.688Z,65.20
2018-03-22T06:20:04.177Z,66.10
2018-03-22T06:22:33.438Z,65.80
2018-03-22T06:25:01.862Z,66.10
2018-03-22T06:27:30.251Z,63.20
2018-03-22T06:29:58.663Z,62.30
2018-03-22T06:32:26.297Z,62.40
2018-03-22T06:34:54.793Z,62.70
2018-03-22T06:37:22.487Z,62.70
2018-03-22T06:39:50.250Z,60.70
2018-03-22T06:42:17.895Z,60.00
2018-03-22T06:44:46.386Z,60.90
2018-03-22T06:47:14.894Z,60.40
2018-03-22T06:49:42.562Z,60.40
2018-03-22T06:52:10.391Z,59.00
2018-03-22T06:54:38.808Z,57.90
2018-03-22T06:57:06.819Z,57.80
2018-03-22T06:59:34.440Z,57.50
2018-03-22T07:02:02.058Z,58.20
2018-03-22T07:04:29.702Z,59.20
2018-03-22T07:06:57.356Z,58.80
2018-03-22T07:09:25.003Z,58.70
2018-03-22T07:11:52.800Z,59.20
2018-03-22T07:14:20.434Z,58.30
2018-03-22T07:16:48.810Z,57.90
2018-03-22T07:19:17.470Z,58.40
2018-03-22T07:21:45.066Z,58.30
2018-03-22T07:24:13.453Z,57.80
2018-03-22T07:26:41.864Z,57.30
2018-03-22T07:29:09.473Z,57.30
2018-03-22T07:31:38.602Z,55.50
2018-03-22T07:34:06.992Z,55.30
2018-03-22T07:36:34.786Z,55.30
2018-03-22T07:39:02.406Z,53.80
2018-03-22T07:41:30.787Z,53.90
2018-03-22T07:44:13.449Z,53.90
2018-03-22T07:46:41.065Z,54.90
2018-03-22T07:49:09.496Z,53.60
2018-03-22T07:51:37.097Z,53.40
2018-03-22T07:54:05.155Z,52.60
2018-03-22T07:56:32.788Z,52.60
2018-03-22T07:59:00.392Z,52.00
2018-03-22T08:01:28.226Z,52.90
2018-03-22T08:03:55.853Z,51.50
2018-03-22T08:06:24.283Z,53.20
2018-03-22T08:08:51.909Z,52.70
2018-03-22T08:11:20.347Z,46.50
2018-03-22T08:13:48.035Z,46.40
2018-03-22T08:16:15.763Z,43.60
2018-03-22T08:18:43.405Z,44.70
2018-03-22T08:21:12.102Z,44.80
2018-03-22T08:23:39.748Z,44.70
2018-03-22T08:26:07.362Z,44.20
2018-03-22T08:28:35.088Z,42.60
2018-03-22T08:31:02.708Z,45.80
2018-03-22T08:33:30.360Z,45.30
2018-03-22T08:35:58.025Z,47.40
2018-03-22T08:38:25.634Z,48.20
2018-03-22T08:40:53.359Z,46.70
2018-03-22T08:43:20.982Z,44.50
2018-03-22T08:45:48.637Z,45.70
2018-03-22T08:48:16.308Z,43.80
2018-03-22T08:50:43.924Z,43.40
2018-03-22T08:53:11.688Z,45.30
2018-03-22T08:55:39.318Z,43.80
2018-03-22T08:58:06.976Z,43.60
2018-03-22T09:00:34.591Z,46.20
2018-03-22T09:03:02.950Z,44.50
2018-03-22T09:05:31.352Z,44.70
2018-03-22T09:07:59.129Z,44.70
2018-03-22T09:10:26.800Z,43.50
2018-03-22T09:12:54.765Z,44.20
2018-03-22T09:15:22.371Z,41.90
2018-03-22T09:17:50.066Z,39.50
2018-03-22T09:20:18.485Z,37.60
2018-03-22T09:22:52.037Z,40.60
2018-03-22T09:25:20.468Z,39.90
2018-03-22T09:27:48.089Z,39.50
2018-03-22T09:30:15.695Z,38.80
2018-03-22T09:32:43.327Z,41.40
2018-03-22T09:35:11.722Z,40.90
2018-03-22T09:37:40.111Z,39.70
2018-03-22T09:40:07.897Z,39.60
2018-03-22T09:42:35.979Z,40.70
2018-03-22T09:45:04.146Z,36.90
2018-03-22T09:47:31.771Z,35.50
2018-03-22T09:49:59.489Z,35.80
2018-03-22T09:52:27.060Z,37.40
2018-03-22T09:54:54.811Z,37.70
2018-03-22T09:57:22.519Z,37.10
2018-03-22T09:59:50.252Z,33.60
2018-03-22T10:02:18.085Z,34.20
2018-03-22T10:04:46.155Z,36.00
2018-03-22T10:07:14.594Z,34.90
2018-03-22T10:09:42.209Z,34.90
2018-03-22T10:12:09.832Z,34.40
2018-03-22T10:14:37.491Z,32.90
2018-03-22T10:17:05.128Z,33.10
2018-03-22T10:19:33.545Z,33.10
2018-03-22T10:22:01.537Z,33.10
2018-03-22T10:24:29.152Z,35.00
2018-03-22T10:26:57.528Z,33.40
2018-03-22T10:29:26.048Z,33.30
2018-03-22T10:31:53.703Z,33.50
2018-03-22T10:34:21.325Z,32.20
2018-03-22T10:36:48.926Z,31.20
2018-03-22T10:39:17.660Z,34.60
2018-03-22T10:41:45.278Z,34.50
2018-03-22T10:44:13.659Z,32.90
2018-03-22T10:46:42.076Z,33.10
2018-03-22T10:49:09.829Z,33.00
2018-03-22T10:51:37.598Z,34.00
2018-03-22T10:54:05.197Z,32.80
2018-03-22T10:56:32.953Z,32.30
2018-03-22T10:59:00.576Z,32.00
2018-03-22T11:01:34.630Z,32.40
2018-03-22T11:04:08.125Z,32.20
2018-03-22T11:06:35.914Z,31.50
2018-03-22T11:09:03.562Z,28.70
2018-03-22T11:11:31.207Z,28.60
2018-03-22T11:13:59.629Z,31.10
2018-03-22T11:16:27.247Z,31.10
2018-03-22T11:18:55.629Z,31.20
2018-03-22T11:21:24.042Z,31.30
2018-03-22T11:23:51.705Z,31.40
2018-03-22T11:26:19.338Z,32.40
2018-03-22T11:28:47.749Z,32.00
2018-03-22T11:31:15.372Z,31.90
2018-03-22T11:33:42.986Z,31.50
2018-03-22T11:36:10.623Z,32.90
2018-03-22T11:38:39.014Z,34.30
2018-03-22T11:41:07.412Z,32.20
2018-03-22T11:43:35.019Z,32.10
2018-03-22T11:46:02.647Z,31.60
2018-03-22T11:48:30.295Z,34.00
2018-03-22T11:50:57.920Z,33.60
2018-03-22T11:53:25.660Z,35.00
2018-03-22T11:55:53.328Z,32.10
2018-03-22T11:58:21.742Z,33.00
2018-03-22T12:00:49.432Z,32.90
2018-03-22T12:03:17.079Z,34.50
2018-03-22T12:05:44.730Z,34.00
2018-03-22T12:08:12.337Z,32.60
2018-03-22T12:10:39.985Z,35.10
2018-03-22T12:13:07.706Z,34.00
2018-03-22T12:15:35.378Z,33.60
2018-03-22T12:18:03.584Z,32.50
2018-03-22T12:20:31.266Z,33.00
2018-03-22T12:22:59.090Z,34.00
2018-03-22T12:25:26.829Z,32.10
2018-03-22T12:27:55.478Z,33.10
2018-03-22T12:30:25.838Z,33.10
2018-03-22T12:32:53.548Z,35.50
2018-03-22T12:35:21.231Z,33.90
2018-03-22T12:37:48.841Z,30.10
2018-03-22T12:40:17.247Z,32.20
2018-03-22T12:42:45.656Z,29.40
2018-03-22T12:45:13.284Z,29.40
2018-03-22T12:47:41.697Z,30.70
2018-03-22T12:50:09.330Z,30.70
2018-03-22T12:52:37.748Z,30.40
2018-03-22T12:55:05.371Z,30.40
2018-03-22T12:57:33.013Z,29.40
2018-03-22T13:00:00.655Z,28.90
2018-03-22T13:02:28.264Z,29.20
2018-03-22T13:04:55.868Z,28.20
2018-03-22T13:07:23.459Z,28.40
2018-03-22T13:09:51.084Z,28.00
2018-03-22T13:12:19.543Z,28.50
2018-03-22T13:14:47.189Z,28.50
2018-03-22T13:17:14.843Z,29.40
2018-03-22T13:19:42.936Z,27.80
2018-03-22T13:22:10.688Z,27.30
2018-03-22T13:24:38.318Z,30.00
2018-03-22T13:27:06.741Z,27.10
2018-03-22T13:29:34.373Z,27.10
2018-03-22T13:32:02.027Z,27.10
2018-03-22T13:34:29.748Z,27.00
2018-03-22T13:36:57.593Z,28.30
2018-03-22T13:39:25.322Z,28.10
2018-03-22T13:41:53.747Z,28.30
2018-03-22T13:44:21.377Z,28.30
2018-03-22T13:46:49.784Z,27.60
2018-03-22T13:49:18.194Z,27.30
2018-03-22T13:51:45.978Z,27.20
2018-03-22T13:54:15.155Z,28.50
2018-03-22T13:56:42.981Z,28.50
2018-03-22T13:59:10.592Z,29.50
2018-03-22T14:01:38.989Z,29.00
2018-03-22T14:04:06.621Z,29.90
2018-03-22T14:06:34.302Z,29.90
2018-03-22T14:09:01.933Z,30.00
2018-03-22T14:11:30.356Z,30.20
2018-03-22T14:13:58.038Z,30.20
2018-03-22T14:16:25.649Z,31.20
2018-03-22T14:18:54.793Z,31.00
2018-03-22T14:21:22.414Z,31.00
2018-03-22T14:23:50.899Z,31.00
2018-03-22T14:26:19.428Z,32.10
2018-03-22T14:28:47.043Z,32.10
2018-03-22T14:31:14.659Z,32.20
2018-03-22T14:33:42.262Z,31.60
2018-03-22T14:36:09.901Z,31.20
2018-03-22T14:38:37.519Z,31.10
2018-03-22T14:41:05.957Z,31.50
2018-03-22T14:43:33.602Z,31.40
2018-03-22T14:46:01.237Z,32.00
2018-03-22T14:48:29.652Z,29.80
2018-03-22T14:50:57.270Z,29.40
2018-03-22T14:53:24.958Z,28.80
2018-03-22T14:56:00.570Z,28.40
2018-03-22T14:58:28.456Z,28.40
2018-03-22T15:00:56.188Z,28.10
2018-03-22T15:03:23.796Z,28.70
2018-03-22T15:05:51.438Z,27.60
2018-03-22T15:08:19.191Z,27.40
2018-03-22T15:10:47.038Z,27.00
2018-03-22T15:13:14.715Z,27.70
2018-03-22T15:15:42.355Z,29.10
2018-03-22T15:18:10.762Z,26.80
2018-03-22T15:20:38.394Z,26.80
2018-03-22T15:23:06.787Z,26.50
2018-03-22T15:25:35.295Z,26.60
2018-03-22T15:28:02.969Z,26.60
2018-03-22T15:30:30.632Z,26.80
2018-03-22T15:32:58.256Z,28.20
2018-03-22T15:35:26.689Z,28.70
2018-03-22T15:37:54.351Z,28.70
2018-03-22T15:40:21.974Z,28.90
2018-03-22T15:42:50.417Z,29.30
2018-03-22T15:45:18.045Z,29.20
2018-03-22T15:47:46.499Z,28.40
2018-03-22T15:50:14.949Z,28.80
2018-03-22T15:52:42.601Z,29.30
2018-03-22T15:55:10.451Z,29.20
2018-03-22T15:57:38.821Z,29.10
2018-03-22T16:00:07.272Z,28.70
2018-03-22T16:02:34.865Z,28.70
2018-03-22T16:05:02.642Z,29.40
2018-03-22T16:07:30.255Z,30.10
2018-03-22T16:09:57.863Z,29.20
2018-03-22T16:12:26.395Z,28.40
2018-03-22T16:14:54.028Z,28.50
2018-03-22T16:17:21.664Z,28.50
2018-03-22T16:19:49.267Z,28.60
2018-03-22T16:22:17.657Z,28.70
2018-03-22T16:24:46.055Z,28.50
2018-03-22T16:27:13.818Z,28.50
2018-03-22T16:29:41.475Z,29.30
2018-03-22T16:32:09.994Z,29.10
2018-03-22T16:34:37.656Z,29.10
2018-03-22T16:37:05.414Z,29.30
2018-03-22T16:39:33.073Z,29.60
2018-03-22T16:42:00.727Z,29.50
2018-03-22T16:44:29.137Z,30.20
2018-03-22T16:46:56.917Z,30.20
2018-03-22T16:49:24.567Z,30.70
2018-03-22T16:51:52.230Z,29.50
2018-03-22T16:54:19.912Z,30.10
2018-03-22T16:56:47.582Z,30.20
2018-03-22T16:59:15.258Z,30.00
2018-03-22T17:01:42.935Z,30.10
2018-03-22T17:04:10.690Z,29.80
2018-03-22T17:06:38.351Z,30.20
2018-03-22T17:09:06.058Z,30.10
2018-03-22T17:11:33.737Z,29.90
2018-03-22T17:14:02.232Z,31.60
2018-03-22T17:16:30.644Z,32.30
2018-03-22T17:18:58.337Z,32.30
2018-03-22T17:21:26.761Z,30.60
2018-03-22T17:23:55.276Z,32.00
2018-03-22T17:26:22.957Z,31.40
2018-03-22T17:28:50.598Z,32.40
2018-03-22T17:31:19.065Z,31.80
2018-03-22T17:33:46.715Z,31.70
2018-03-22T17:36:14.401Z,32.50
2018-03-22T17:38:42.881Z,34.60
2018-03-22T17:41:11.268Z,34.60
2018-03-22T17:43:39.713Z,34.10
2018-03-22T17:46:07.359Z,33.60
2018-03-22T17:48:37.606Z,34.40
2018-03-22T17:51:05.280Z,32.50
2018-03-22T17:53:32.922Z,32.70
2018-03-22T17:56:00.631Z,31.90
2018-03-22T17:58:28.277Z,32.50
2018-03-22T18:00:55.985Z,32.50
2018-03-22T18:03:24.390Z,32.80
2018-03-22T18:05:52.257Z,32.70
2018-03-22T18:08:21.276Z,35.00
2018-03-22T18:10:48.966Z,35.00
2018-03-22T18:13:16.651Z,34.90
2018-03-22T18:15:44.305Z,35.50
2018-03-22T18:18:12.061Z,35.90
2018-03-22T18:20:39.754Z,36.30
2018-03-22T18:23:07.427Z,36.50
2018-03-22T18:25:35.185Z,37.40
2018-03-22T18:28:02.855Z,38.60
2018-03-22T18:30:30.580Z,38.90
2018-03-22T18:32:58.277Z,40.20
2018-03-22T18:35:26.038Z,41.20
2018-03-22T18:37:53.673Z,42.00
2018-03-22T18:40:21.673Z,42.00
2018-03-22T18:42:49.536Z,42.40
2018-03-22T18:45:18.204Z,43.10
2018-03-22T18:47:45.999Z,43.80
2018-03-22T18:50:13.683Z,45.00
2018-03-22T18:52:41.427Z,47.40
2018-03-22T18:55:09.136Z,49.50
2018-03-22T18:57:36.842Z,51.70
2018-03-22T19:00:05.914Z,56.00
2018-03-22T19:02:33.625Z,55.50
2018-03-22T19:05:01.611Z,56.80
2018-03-22T19:07:29.585Z,57.50
2018-03-22T19:09:57.492Z,57.70
2018-03-22T19:12:26.780Z,56.70
2018-03-22T19:14:54.476Z,56.70
2018-03-22T19:17:23.019Z,59.20
2018-03-22T19:19:50.707Z,58.60
2018-03-22T19:22:18.446Z,58.60
2018-03-22T19:24:47.861Z,60.60
2018-03-22T19:27:15.725Z,60.60
2018-03-22T19:29:43.893Z,60.00
2018-03-22T19:32:11.799Z,60.20
2018-03-22T19:34:39.752Z,59.60
2018-03-22T19:37:07.689Z,58.20
2018-03-22T19:39:36.415Z,58.00
2018-03-22T19:42:04.933Z,58.10
2018-03-22T19:44:32.932Z,58.10
2018-03-22T19:47:00.792Z,57.60
2018-03-22T19:49:28.616Z,58.00
2018-03-22T19:51:56.561Z,57.10
2018-03-22T19:54:25.280Z,58.00
2018-03-22T19:56:53.149Z,58.00
2018-03-22T19:59:20.879Z,58.00
2018-03-22T20:01:49.435Z,58.50
2018-03-22T20:04:17.125Z,59.00
2018-03-22T20:06:45.564Z,59.40
2018-03-22T20:09:13.283Z,59.40
2018-03-22T20:11:41.979Z,61.10
2018-03-22T20:14:10.507Z,61.40
2018-03-22T20:16:38.261Z,61.40
2018-03-22T20:19:06.047Z,61.40
2018-03-22T20:21:33.816Z,61.70
2018-03-22T20:24:01.603Z,62.10
2018-03-22T20:26:29.415Z,63.40
2018-03-22T20:28:57.132Z,64.60
2018-03-22T20:31:24.852Z,64.60
2018-03-22T20:33:53.389Z,65.20
2018-03-22T20:36:21.922Z,66.10
2018-03-22T20:38:50.385Z,66.20
2018-03-22T20:41:18.219Z,66.10
2018-03-22T20:43:45.986Z,66.50
2018-03-22T20:46:13.757Z,66.90
2018-03-22T20:48:41.518Z,67.10
2018-03-22T20:51:09.236Z,67.70
2018-03-22T20:53:36.953Z,67.10
2018-03-22T20:56:05.362Z,67.10
2018-03-22T20:58:33.172Z,67.40
2018-03-22T21:01:00.886Z,67.90
2018-03-22T21:03:28.931Z,68.50
2018-03-22T21:05:56.791Z,69.10
2018-03-22T21:08:24.700Z,69.50
2018-03-22T21:10:52.411Z,70.40
2018-03-22T21:13:20.771Z,69.90
2018-03-22T21:15:48.945Z,69.50
2018-03-22T21:18:16.799Z,70.10
2018-03-22T21:20:44.970Z,70.80
2018-03-22T21:23:15.940Z,70.50
2018-03-22T21:25:44.090Z,70.50
2018-03-22T21:28:12.179Z,70.80
2018-03-22T21:30:40.190Z,70.60
2018-03-22T21:33:08.866Z,71.10
2018-03-22T21:35:37.315Z,71.00
2018-03-22T21:38:05.083Z,71.40
2018-03-22T21:40:32.985Z,71.30
2018-03-22T21:43:00.841Z,71.30
2018-03-22T21:45:28.625Z,71.90
2018-03-22T21:47:56.487Z,71.80
2018-03-22T21:50:24.137Z,71.30
2018-03-22T21:52:52.230Z,71.70
2018-03-22T21:55:20.711Z,71.50
2018-03-22T21:57:48.467Z,71.60
2018-03-22T22:00:16.247Z,71.60
2018-03-22T22:02:43.959Z,71.40
2018-03-22T22:05:11.627Z,71.80
2018-03-22T22:10:14.725Z,71.70
2018-03-22T22:12:42.399Z,71.70
2018-03-22T22:15:10.865Z,71.50
2018-03-22T22:17:38.529Z,71.50
2018-03-22T22:20:06.195Z,71.80
2018-03-22T22:22:33.863Z,71.70
2018-03-22T22:25:01.513Z,71.70
2018-03-22T22:27:29.348Z,71.40
2018-03-22T22:29:57.816Z,72.70
2018-03-22T22:32:25.477Z,72.70
2018-03-22T22:34:53.130Z,72.30
2018-03-22T22:37:20.798Z,73.00
2018-03-22T22:39:48.525Z,73.10
2018-03-22T22:42:16.184Z,73.40
2018-03-22T22:44:45.171Z,73.60
2018-03-22T22:47:13.636Z,73.70
2018-03-22T22:49:42.206Z,73.60
2018-03-22T22:52:09.942Z,73.60
2018-03-22T22:54:37.732Z,73.60
2018-03-22T22:57:05.520Z,73.90
2018-03-22T22:59:34.332Z,74.40
2018-03-22T23:02:01.966Z,74.40
2018-03-22T23:07:09.460Z,74.00
2018-03-22T23:09:37.122Z,74.50
2018-03-22T23:12:04.895Z,74.30
2018-03-22T23:14:32.656Z,74.40
2018-03-22T23:17:00.324Z,74.40
2018-03-22T23:19:27.974Z,74.20
2018-03-22T23:21:55.867Z,74.30
2018-03-22T23:24:23.539Z,74.20
2018-03-22T23:26:51.216Z,74.20
2018-03-22T23:29:18.889Z,74.50
2018-03-22T23:31:46.535Z,74.50
2018-03-22T23:34:14.217Z,74.50
2018-03-22T23:36:41.843Z,74.50
2018-03-22T23:39:10.296Z,74.00
2018-03-22T23:41:39.673Z,74.40
2018-03-22T23:44:07.425Z,74.30
2018-03-22T23:46:35.153Z,74.80
2018-03-22T23:49:02.856Z,75.40
2018-03-22T23:51:30.679Z,75.40
2018-03-22T23:53:59.115Z,75.60
2018-03-22T23:56:26.798Z,75.60
2018-03-22T23:58:54.535Z,75.70
